sensor_id;sensor_type;location;lat;lon;timestamp;P1;durP1;ratioP1;P2;durP2;ratioP2
21894;SDS011;11112;51.270;7.224;2022-07-10T00:00:34;6.47;;;1.75;;
21894;SDS011;11112;51.270;7.224;2022-07-10T00:03:02;5.80;;;1.30;;
21894;SDS011;11112;51.270;7.224;2022-07-10T00:05:31;4.65;;;1.40;;
21894;SDS011;11112;51.270;7.224;2022-07-10T00:08:00;7.57;;;1.63;;
21894;SDS011;11112;51.270;7.224;2022-07-10T00:10:28;6.85;;;1.80;;
21894;SDS011;11112;51.270;7.224;2022-07-10T00:12:57;5.95;;;1.30;;
21894;SDS011;11112;51.270;7.224;2022-07-10T00:15:26;5.82;;;1.45;;
21894;SDS011;11112;51.270;7.224;2022-07-10T00:17:53;5.88;;;1.40;;
21894;SDS011;11112;51.270;7.224;2022-07-10T00:20:20;5.93;;;1.40;;
21894;SDS011;11112;51.270;7.224;2022-07-10T00:22:47;5.90;;;1.25;;
21894;SDS011;11112;51.270;7.224;2022-07-10T00:25:14;7.18;;;1.35;;
21894;SDS011;11112;51.270;7.224;2022-07-10T00:27:42;6.53;;;1.60;;
21894;SDS011;11112;51.270;7.224;2022-07-10T00:30:11;7.65;;;1.25;;
21894;SDS011;11112;51.270;7.224;2022-07-10T00:32:39;7.65;;;1.55;;
21894;SDS011;11112;51.270;7.224;2022-07-10T00:35:06;8.27;;;1.35;;
21894;SDS011;11112;51.270;7.224;2022-07-10T00:37:34;4.50;;;1.20;;
21894;SDS011;11112;51.270;7.224;2022-07-10T00:40:02;6.45;;;1.40;;
21894;SDS011;11112;51.270;7.224;2022-07-10T00:42:30;7.30;;;1.40;;
21894;SDS011;11112;51.270;7.224;2022-07-10T00:44:58;5.63;;;1.10;;
21894;SDS011;11112;51.270;7.224;2022-07-10T00:47:27;6.40;;;1.20;;
21894;SDS011;11112;51.270;7.224;2022-07-10T00:49:54;6.28;;;1.10;;
21894;SDS011;11112;51.270;7.224;2022-07-10T00:52:21;5.32;;;1.30;;
21894;SDS011;11112;51.270;7.224;2022-07-10T00:54:49;5.30;;;1.05;;
21894;SDS011;11112;51.270;7.224;2022-07-10T00:57:17;6.65;;;1.20;;
21894;SDS011;11112;51.270;7.224;2022-07-10T00:59:45;6.68;;;1.20;;
21894;SDS011;11112;51.270;7.224;2022-07-10T01:02:13;4.78;;;1.13;;
21894;SDS011;11112;51.270;7.224;2022-07-10T01:04:42;4.88;;;1.08;;
21894;SDS011;11112;51.270;7.224;2022-07-10T01:07:09;6.85;;;1.33;;
21894;SDS011;11112;51.270;7.224;2022-07-10T01:09:36;4.85;;;1.30;;
21894;SDS011;11112;51.270;7.224;2022-07-10T01:12:04;5.55;;;1.25;;
21894;SDS011;11112;51.270;7.224;2022-07-10T01:14:33;6.20;;;1.20;;
21894;SDS011;11112;51.270;7.224;2022-07-10T01:17:03;6.95;;;1.15;;
21894;SDS011;11112;51.270;7.224;2022-07-10T01:19:32;6.28;;;1.27;;
21894;SDS011;11112;51.270;7.224;2022-07-10T01:22:01;7.13;;;0.90;;
21894;SDS011;11112;51.270;7.224;2022-07-10T01:24:29;8.13;;;1.40;;
21894;SDS011;11112;51.270;7.224;2022-07-10T01:26:56;6.07;;;1.20;;
21894;SDS011;11112;51.270;7.224;2022-07-10T01:29:23;4.93;;;1.13;;
21894;SDS011;11112;51.270;7.224;2022-07-10T01:31:51;5.00;;;1.00;;
21894;SDS011;11112;51.270;7.224;2022-07-10T01:34:18;8.00;;;1.50;;
21894;SDS011;11112;51.270;7.224;2022-07-10T01:36:45;7.50;;;1.13;;
21894;SDS011;11112;51.270;7.224;2022-07-10T01:39:14;5.30;;;1.27;;
21894;SDS011;11112;51.270;7.224;2022-07-10T01:41:41;5.40;;;1.20;;
21894;SDS011;11112;51.270;7.224;2022-07-10T01:44:08;5.32;;;1.10;;
21894;SDS011;11112;51.270;7.224;2022-07-10T01:46:35;6.10;;;1.25;;
21894;SDS011;11112;51.270;7.224;2022-07-10T01:49:09;8.02;;;1.38;;
21894;SDS011;11112;51.270;7.224;2022-07-10T01:51:36;5.03;;;0.85;;
21894;SDS011;11112;51.270;7.224;2022-07-10T01:54:04;4.70;;;1.10;;
21894;SDS011;11112;51.270;7.224;2022-07-10T01:56:32;5.90;;;1.20;;
21894;SDS011;11112;51.270;7.224;2022-07-10T01:59:00;6.38;;;1.40;;
21894;SDS011;11112;51.270;7.224;2022-07-10T02:01:28;7.88;;;1.60;;
21894;SDS011;11112;51.270;7.224;2022-07-10T02:03:55;4.75;;;0.98;;
21894;SDS011;11112;51.270;7.224;2022-07-10T02:06:42;8.10;;;1.30;;
21894;SDS011;11112;51.270;7.224;2022-07-10T02:09:09;4.93;;;1.08;;
21894;SDS011;11112;51.270;7.224;2022-07-10T02:11:38;7.70;;;1.52;;
21894;SDS011;11112;51.270;7.224;2022-07-10T02:14:05;6.53;;;1.27;;
21894;SDS011;11112;51.270;7.224;2022-07-10T02:16:35;6.68;;;1.33;;
21894;SDS011;11112;51.270;7.224;2022-07-10T02:19:03;6.43;;;1.40;;
21894;SDS011;11112;51.270;7.224;2022-07-10T02:21:30;5.13;;;1.13;;
21894;SDS011;11112;51.270;7.224;2022-07-10T02:23:57;9.90;;;1.73;;
21894;SDS011;11112;51.270;7.224;2022-07-10T02:26:24;7.95;;;1.52;;
21894;SDS011;11112;51.270;7.224;2022-07-10T02:28:52;7.28;;;1.67;;
21894;SDS011;11112;51.270;7.224;2022-07-10T02:31:19;8.02;;;1.33;;
21894;SDS011;11112;51.270;7.224;2022-07-10T02:33:46;6.10;;;1.40;;
21894;SDS011;11112;51.270;7.224;2022-07-10T02:36:13;8.05;;;1.73;;
21894;SDS011;11112;51.270;7.224;2022-07-10T02:38:41;8.93;;;1.60;;
21894;SDS011;11112;51.270;7.224;2022-07-10T02:41:08;5.20;;;1.40;;
21894;SDS011;11112;51.270;7.224;2022-07-10T02:43:35;6.78;;;1.42;;
21894;SDS011;11112;51.270;7.224;2022-07-10T02:46:03;11.77;;;2.05;;
21894;SDS011;11112;51.270;7.224;2022-07-10T02:48:31;6.45;;;1.33;;
21894;SDS011;11112;51.270;7.224;2022-07-10T02:51:01;11.40;;;1.48;;
21894;SDS011;11112;51.270;7.224;2022-07-10T02:53:28;7.00;;;1.50;;
21894;SDS011;11112;51.270;7.224;2022-07-10T02:55:56;6.68;;;1.65;;
21894;SDS011;11112;51.270;7.224;2022-07-10T02:58:23;7.88;;;1.50;;
21894;SDS011;11112;51.270;7.224;2022-07-10T03:00:50;8.32;;;1.30;;
21894;SDS011;11112;51.270;7.224;2022-07-10T03:03:19;5.05;;;1.58;;
21894;SDS011;11112;51.270;7.224;2022-07-10T03:05:49;5.93;;;1.42;;
21894;SDS011;11112;51.270;7.224;2022-07-10T03:08:16;7.40;;;1.63;;
21894;SDS011;11112;51.270;7.224;2022-07-10T03:10:43;6.68;;;1.52;;
21894;SDS011;11112;51.270;7.224;2022-07-10T03:13:10;5.90;;;1.55;;
21894;SDS011;11112;51.270;7.224;2022-07-10T03:15:38;7.90;;;1.60;;
21894;SDS011;11112;51.270;7.224;2022-07-10T03:18:05;6.05;;;1.35;;
21894;SDS011;11112;51.270;7.224;2022-07-10T03:20:33;7.80;;;1.60;;
21894;SDS011;11112;51.270;7.224;2022-07-10T03:23:01;8.82;;;1.80;;
21894;SDS011;11112;51.270;7.224;2022-07-10T03:25:30;8.82;;;1.42;;
21894;SDS011;11112;51.270;7.224;2022-07-10T03:27:57;6.15;;;1.30;;
21894;SDS011;11112;51.270;7.224;2022-07-10T03:30:24;6.20;;;1.50;;
21894;SDS011;11112;51.270;7.224;2022-07-10T03:32:54;6.13;;;1.50;;
21894;SDS011;11112;51.270;7.224;2022-07-10T03:35:22;7.38;;;1.45;;
21894;SDS011;11112;51.270;7.224;2022-07-10T03:37:52;9.77;;;1.45;;
21894;SDS011;11112;51.270;7.224;2022-07-10T03:40:19;8.13;;;1.70;;
21894;SDS011;11112;51.270;7.224;2022-07-10T03:42:46;7.40;;;1.75;;
21894;SDS011;11112;51.270;7.224;2022-07-10T03:45:13;6.50;;;1.25;;
21894;SDS011;11112;51.270;7.224;2022-07-10T03:47:40;8.07;;;1.92;;
21894;SDS011;11112;51.270;7.224;2022-07-10T03:50:08;7.07;;;1.30;;
21894;SDS011;11112;51.270;7.224;2022-07-10T03:52:35;8.05;;;1.60;;
21894;SDS011;11112;51.270;7.224;2022-07-10T03:55:04;9.30;;;1.30;;
21894;SDS011;11112;51.270;7.224;2022-07-10T03:57:32;7.13;;;1.55;;
21894;SDS011;11112;51.270;7.224;2022-07-10T04:00:17;8.50;;;1.60;;
21894;SDS011;11112;51.270;7.224;2022-07-10T04:02:44;4.93;;;1.23;;
21894;SDS011;11112;51.270;7.224;2022-07-10T04:05:11;6.85;;;1.52;;
21894;SDS011;11112;51.270;7.224;2022-07-10T04:07:38;5.93;;;1.23;;
21894;SDS011;11112;51.270;7.224;2022-07-10T04:10:07;8.75;;;1.55;;
21894;SDS011;11112;51.270;7.224;2022-07-10T04:12:35;6.85;;;1.33;;
21894;SDS011;11112;51.270;7.224;2022-07-10T04:15:03;7.07;;;1.50;;
21894;SDS011;11112;51.270;7.224;2022-07-10T04:17:32;5.28;;;1.25;;
21894;SDS011;11112;51.270;7.224;2022-07-10T04:19:59;7.57;;;1.33;;
21894;SDS011;11112;51.270;7.224;2022-07-10T04:22:26;8.07;;;1.40;;
21894;SDS011;11112;51.270;7.224;2022-07-10T04:24:54;8.02;;;1.40;;
21894;SDS011;11112;51.270;7.224;2022-07-10T04:27:22;6.55;;;1.20;;
21894;SDS011;11112;51.270;7.224;2022-07-10T04:29:50;10.13;;;1.40;;
21894;SDS011;11112;51.270;7.224;2022-07-10T04:32:18;6.35;;;1.40;;
21894;SDS011;11112;51.270;7.224;2022-07-10T04:34:45;9.93;;;1.35;;
21894;SDS011;11112;51.270;7.224;2022-07-10T04:37:12;7.97;;;1.20;;
21894;SDS011;11112;51.270;7.224;2022-07-10T04:39:39;9.45;;;1.30;;
21894;SDS011;11112;51.270;7.224;2022-07-10T04:42:07;8.65;;;1.30;;
21894;SDS011;11112;51.270;7.224;2022-07-10T04:44:36;9.57;;;1.42;;
21894;SDS011;11112;51.270;7.224;2022-07-10T04:47:04;7.35;;;1.10;;
21894;SDS011;11112;51.270;7.224;2022-07-10T04:49:32;8.57;;;1.15;;
21894;SDS011;11112;51.270;7.224;2022-07-10T04:52:00;6.45;;;1.08;;
21894;SDS011;11112;51.270;7.224;2022-07-10T04:54:27;5.63;;;1.08;;
21894;SDS011;11112;51.270;7.224;2022-07-10T04:56:54;8.32;;;1.30;;
21894;SDS011;11112;51.270;7.224;2022-07-10T04:59:21;6.45;;;1.15;;
21894;SDS011;11112;51.270;7.224;2022-07-10T05:01:50;8.45;;;1.20;;
21894;SDS011;11112;51.270;7.224;2022-07-10T05:04:17;5.97;;;1.20;;
21894;SDS011;11112;51.270;7.224;2022-07-10T05:06:44;6.15;;;1.05;;
21894;SDS011;11112;51.270;7.224;2022-07-10T05:09:11;6.82;;;1.40;;
21894;SDS011;11112;51.270;7.224;2022-07-10T05:11:39;11.98;;;1.63;;
21894;SDS011;11112;51.270;7.224;2022-07-10T05:14:06;11.52;;;1.40;;
21894;SDS011;11112;51.270;7.224;2022-07-10T05:16:33;8.75;;;1.30;;
21894;SDS011;11112;51.270;7.224;2022-07-10T05:19:01;6.90;;;1.30;;
21894;SDS011;11112;51.270;7.224;2022-07-10T05:21:28;8.32;;;1.00;;
21894;SDS011;11112;51.270;7.224;2022-07-10T05:23:55;7.80;;;1.33;;
21894;SDS011;11112;51.270;7.224;2022-07-10T05:26:22;10.18;;;1.50;;
21894;SDS011;11112;51.270;7.224;2022-07-10T05:28:49;9.10;;;1.20;;
21894;SDS011;11112;51.270;7.224;2022-07-10T05:31:17;7.35;;;1.40;;
21894;SDS011;11112;51.270;7.224;2022-07-10T05:33:44;6.35;;;1.20;;
21894;SDS011;11112;51.270;7.224;2022-07-10T05:36:12;6.68;;;1.27;;
21894;SDS011;11112;51.270;7.224;2022-07-10T05:38:39;9.50;;;1.63;;
21894;SDS011;11112;51.270;7.224;2022-07-10T05:41:07;5.28;;;1.08;;
21894;SDS011;11112;51.270;7.224;2022-07-10T05:43:34;8.43;;;1.30;;
21894;SDS011;11112;51.270;7.224;2022-07-10T05:46:02;5.47;;;1.25;;
21894;SDS011;11112;51.270;7.224;2022-07-10T05:48:30;8.07;;;1.50;;
21894;SDS011;11112;51.270;7.224;2022-07-10T05:50:58;7.18;;;1.30;;
21894;SDS011;11112;51.270;7.224;2022-07-10T05:53:26;10.23;;;1.42;;
21894;SDS011;11112;51.270;7.224;2022-07-10T05:55:53;5.88;;;1.35;;
21894;SDS011;11112;51.270;7.224;2022-07-10T05:58:20;7.78;;;1.52;;
21894;SDS011;11112;51.270;7.224;2022-07-10T06:00:48;8.68;;;1.35;;
21894;SDS011;11112;51.270;7.224;2022-07-10T06:03:15;9.13;;;1.55;;
21894;SDS011;11112;51.270;7.224;2022-07-10T06:05:42;6.80;;;1.55;;
21894;SDS011;11112;51.270;7.224;2022-07-10T06:08:10;11.32;;;1.85;;
21894;SDS011;11112;51.270;7.224;2022-07-10T06:10:39;6.97;;;1.40;;
21894;SDS011;11112;51.270;7.224;2022-07-10T06:13:09;9.43;;;1.60;;
21894;SDS011;11112;51.270;7.224;2022-07-10T06:15:38;9.15;;;1.80;;
21894;SDS011;11112;51.270;7.224;2022-07-10T06:18:05;9.50;;;1.30;;
21894;SDS011;11112;51.270;7.224;2022-07-10T06:20:32;9.43;;;1.70;;
21894;SDS011;11112;51.270;7.224;2022-07-10T06:23:00;7.30;;;1.52;;
21894;SDS011;11112;51.270;7.224;2022-07-10T06:25:27;9.63;;;1.80;;
21894;SDS011;11112;51.270;7.224;2022-07-10T06:27:56;9.43;;;1.85;;
21894;SDS011;11112;51.270;7.224;2022-07-10T06:30:23;10.80;;;1.48;;
21894;SDS011;11112;51.270;7.224;2022-07-10T06:32:50;6.47;;;1.27;;
21894;SDS011;11112;51.270;7.224;2022-07-10T06:35:17;7.05;;;1.67;;
21894;SDS011;11112;51.270;7.224;2022-07-10T06:37:45;15.13;;;2.20;;
21894;SDS011;11112;51.270;7.224;2022-07-10T06:40:12;7.97;;;1.60;;
21894;SDS011;11112;51.270;7.224;2022-07-10T06:42:40;10.05;;;2.03;;
21894;SDS011;11112;51.270;7.224;2022-07-10T06:45:09;7.65;;;1.85;;
21894;SDS011;11112;51.270;7.224;2022-07-10T06:47:39;6.47;;;1.58;;
21894;SDS011;11112;51.270;7.224;2022-07-10T06:50:21;10.13;;;1.60;;
21894;SDS011;11112;51.270;7.224;2022-07-10T06:52:50;9.07;;;1.50;;
21894;SDS011;11112;51.270;7.224;2022-07-10T06:55:18;6.72;;;1.40;;
21894;SDS011;11112;51.270;7.224;2022-07-10T06:57:46;9.55;;;1.80;;
21894;SDS011;11112;51.270;7.224;2022-07-10T07:00:15;6.03;;;1.50;;
21894;SDS011;11112;51.270;7.224;2022-07-10T07:02:42;7.25;;;1.70;;
21894;SDS011;11112;51.270;7.224;2022-07-10T07:05:10;6.93;;;1.73;;
21894;SDS011;11112;51.270;7.224;2022-07-10T07:07:37;7.40;;;1.17;;
21894;SDS011;11112;51.270;7.224;2022-07-10T07:10:05;7.50;;;1.10;;
21894;SDS011;11112;51.270;7.224;2022-07-10T07:12:34;5.15;;;1.35;;
21894;SDS011;11112;51.270;7.224;2022-07-10T07:15:01;5.95;;;1.60;;
21894;SDS011;11112;51.270;7.224;2022-07-10T07:17:29;6.82;;;1.55;;
21894;SDS011;11112;51.270;7.224;2022-07-10T07:20:01;6.07;;;1.33;;
21894;SDS011;11112;51.270;7.224;2022-07-10T07:22:46;6.50;;;1.00;;
21894;SDS011;11112;51.270;7.224;2022-07-10T07:25:31;7.35;;;1.40;;
21894;SDS011;11112;51.270;7.224;2022-07-10T07:27:58;9.98;;;1.48;;
21894;SDS011;11112;51.270;7.224;2022-07-10T07:30:26;8.93;;;1.75;;
21894;SDS011;11112;51.270;7.224;2022-07-10T07:32:54;9.48;;;1.65;;
21894;SDS011;11112;51.270;7.224;2022-07-10T07:35:21;10.25;;;2.22;;
21894;SDS011;11112;51.270;7.224;2022-07-10T07:37:49;7.10;;;1.55;;
21894;SDS011;11112;51.270;7.224;2022-07-10T07:40:18;9.43;;;1.58;;
21894;SDS011;11112;51.270;7.224;2022-07-10T07:42:48;9.35;;;1.90;;
21894;SDS011;11112;51.270;7.224;2022-07-10T07:45:16;8.10;;;1.77;;
21894;SDS011;11112;51.270;7.224;2022-07-10T07:47:44;9.45;;;1.52;;
21894;SDS011;11112;51.270;7.224;2022-07-10T07:50:14;6.78;;;1.40;;
21894;SDS011;11112;51.270;7.224;2022-07-10T07:52:43;7.88;;;1.50;;
21894;SDS011;11112;51.270;7.224;2022-07-10T07:55:11;12.80;;;1.70;;
21894;SDS011;11112;51.270;7.224;2022-07-10T07:57:40;10.90;;;1.52;;
21894;SDS011;11112;51.270;7.224;2022-07-10T08:00:09;5.65;;;0.98;;
21894;SDS011;11112;51.270;7.224;2022-07-10T08:02:38;10.38;;;1.85;;
21894;SDS011;11112;51.270;7.224;2022-07-10T08:05:06;5.82;;;1.42;;
21894;SDS011;11112;51.270;7.224;2022-07-10T08:07:37;8.25;;;1.73;;
21894;SDS011;11112;51.270;7.224;2022-07-10T08:10:07;7.22;;;1.58;;
21894;SDS011;11112;51.270;7.224;2022-07-10T08:12:36;8.98;;;1.90;;
21894;SDS011;11112;51.270;7.224;2022-07-10T08:15:06;8.48;;;1.38;;
21894;SDS011;11112;51.270;7.224;2022-07-10T08:17:34;7.45;;;1.70;;
21894;SDS011;11112;51.270;7.224;2022-07-10T08:20:02;11.82;;;1.80;;
21894;SDS011;11112;51.270;7.224;2022-07-10T08:22:30;7.80;;;1.33;;
21894;SDS011;11112;51.270;7.224;2022-07-10T08:24:59;6.82;;;1.30;;
21894;SDS011;11112;51.270;7.224;2022-07-10T08:27:26;12.63;;;1.70;;
21894;SDS011;11112;51.270;7.224;2022-07-10T08:29:54;9.65;;;1.30;;
21894;SDS011;11112;51.270;7.224;2022-07-10T08:32:21;10.32;;;1.30;;
21894;SDS011;11112;51.270;7.224;2022-07-10T08:34:48;11.32;;;1.58;;
21894;SDS011;11112;51.270;7.224;2022-07-10T08:37:15;11.50;;;1.88;;
21894;SDS011;11112;51.270;7.224;2022-07-10T08:39:44;6.57;;;1.73;;
21894;SDS011;11112;51.270;7.224;2022-07-10T08:42:13;10.15;;;1.80;;
21894;SDS011;11112;51.270;7.224;2022-07-10T08:44:42;9.82;;;2.10;;
21894;SDS011;11112;51.270;7.224;2022-07-10T08:47:09;11.18;;;1.70;;
21894;SDS011;11112;51.270;7.224;2022-07-10T08:49:37;7.88;;;1.73;;
21894;SDS011;11112;51.270;7.224;2022-07-10T08:52:12;8.52;;;1.88;;
21894;SDS011;11112;51.270;7.224;2022-07-10T08:54:51;8.65;;;1.80;;
21894;SDS011;11112;51.270;7.224;2022-07-10T08:57:20;7.72;;;1.63;;
21894;SDS011;11112;51.270;7.224;2022-07-10T08:59:49;7.32;;;1.80;;
21894;SDS011;11112;51.270;7.224;2022-07-10T09:02:16;8.65;;;1.52;;
21894;SDS011;11112;51.270;7.224;2022-07-10T09:04:43;7.45;;;1.80;;
21894;SDS011;11112;51.270;7.224;2022-07-10T09:07:11;7.10;;;1.63;;
21894;SDS011;11112;51.270;7.224;2022-07-10T09:09:51;8.65;;;1.67;;
21894;SDS011;11112;51.270;7.224;2022-07-10T09:12:22;5.88;;;1.80;;
21894;SDS011;11112;51.270;7.224;2022-07-10T09:14:50;8.32;;;1.70;;
21894;SDS011;11112;51.270;7.224;2022-07-10T09:17:18;9.52;;;1.80;;
21894;SDS011;11112;51.270;7.224;2022-07-10T09:19:46;7.55;;;1.67;;
21894;SDS011;11112;51.270;7.224;2022-07-10T09:22:13;9.43;;;2.20;;
21894;SDS011;11112;51.270;7.224;2022-07-10T09:24:41;6.35;;;1.30;;
21894;SDS011;11112;51.270;7.224;2022-07-10T09:27:11;8.85;;;2.00;;
21894;SDS011;11112;51.270;7.224;2022-07-10T09:29:46;9.10;;;2.13;;
21894;SDS011;11112;51.270;7.224;2022-07-10T09:32:17;5.13;;;1.70;;
21894;SDS011;11112;51.270;7.224;2022-07-10T09:34:44;7.75;;;1.70;;
21894;SDS011;11112;51.270;7.224;2022-07-10T09:37:22;6.10;;;1.48;;
21894;SDS011;11112;51.270;7.224;2022-07-10T09:39:56;5.70;;;1.77;;
21894;SDS011;11112;51.270;7.224;2022-07-10T09:42:25;5.35;;;1.65;;
21894;SDS011;11112;51.270;7.224;2022-07-10T09:45:17;6.18;;;1.50;;
21894;SDS011;11112;51.270;7.224;2022-07-10T09:47:46;5.35;;;1.40;;
21894;SDS011;11112;51.270;7.224;2022-07-10T09:50:25;5.65;;;1.58;;
21894;SDS011;11112;51.270;7.224;2022-07-10T09:52:54;5.20;;;1.55;;
21894;SDS011;11112;51.270;7.224;2022-07-10T09:55:26;6.25;;;1.70;;
21894;SDS011;11112;51.270;7.224;2022-07-10T09:57:56;3.80;;;1.20;;
21894;SDS011;11112;51.270;7.224;2022-07-10T10:00:28;7.05;;;1.40;;
21894;SDS011;11112;51.270;7.224;2022-07-10T10:02:57;6.03;;;1.60;;
21894;SDS011;11112;51.270;7.224;2022-07-10T10:05:32;5.07;;;1.50;;
21894;SDS011;11112;51.270;7.224;2022-07-10T10:08:04;3.95;;;1.45;;
21894;SDS011;11112;51.270;7.224;2022-07-10T10:10:40;5.25;;;1.80;;
21894;SDS011;11112;51.270;7.224;2022-07-10T10:13:13;4.15;;;1.60;;
21894;SDS011;11112;51.270;7.224;2022-07-10T10:15:45;5.35;;;1.73;;
21894;SDS011;11112;51.270;7.224;2022-07-10T10:18:13;4.20;;;1.60;;
21894;SDS011;11112;51.270;7.224;2022-07-10T10:20:47;5.10;;;1.90;;
21894;SDS011;11112;51.270;7.224;2022-07-10T10:23:16;6.80;;;2.00;;
21894;SDS011;11112;51.270;7.224;2022-07-10T10:25:45;6.22;;;2.20;;
21894;SDS011;11112;51.270;7.224;2022-07-10T10:28:13;5.05;;;2.00;;
21894;SDS011;11112;51.270;7.224;2022-07-10T10:30:42;4.57;;;1.80;;
21894;SDS011;11112;51.270;7.224;2022-07-10T10:39:13;5.60;;;2.25;;
21894;SDS011;11112;51.270;7.224;2022-07-10T10:41:46;4.90;;;2.00;;
21894;SDS011;11112;51.270;7.224;2022-07-10T10:47:04;5.43;;;2.28;;
21894;SDS011;11112;51.270;7.224;2022-07-10T10:49:52;5.38;;;2.40;;
21894;SDS011;11112;51.270;7.224;2022-07-10T10:52:24;5.25;;;2.40;;
21894;SDS011;11112;51.270;7.224;2022-07-10T10:55:04;5.72;;;2.50;;
21894;SDS011;11112;51.270;7.224;2022-07-10T10:57:40;7.88;;;3.50;;
21894;SDS011;11112;51.270;7.224;2022-07-10T11:00:14;7.18;;;2.95;;
21894;SDS011;11112;51.270;7.224;2022-07-10T11:03:19;6.20;;;3.15;;
21894;SDS011;11112;51.270;7.224;2022-07-10T11:05:50;6.35;;;3.28;;
21894;SDS011;11112;51.270;7.224;2022-07-10T11:08:36;7.72;;;3.38;;
21894;SDS011;11112;51.270;7.224;2022-07-10T11:14:08;9.13;;;5.55;;
21894;SDS011;11112;51.270;7.224;2022-07-10T11:16:37;9.85;;;6.60;;
21894;SDS011;11112;51.270;7.224;2022-07-10T11:19:20;11.30;;;7.70;;
21894;SDS011;11112;51.270;7.224;2022-07-10T11:21:49;11.32;;;8.27;;
21894;SDS011;11112;51.270;7.224;2022-07-10T11:24:40;11.80;;;8.18;;
21894;SDS011;11112;51.270;7.224;2022-07-10T11:27:15;11.40;;;8.35;;
21894;SDS011;11112;51.270;7.224;2022-07-10T11:29:57;11.45;;;8.15;;
21894;SDS011;11112;51.270;7.224;2022-07-10T11:32:25;10.55;;;7.95;;
21894;SDS011;11112;51.270;7.224;2022-07-10T11:34:53;12.07;;;8.35;;
21894;SDS011;11112;51.270;7.224;2022-07-10T11:37:21;9.98;;;7.80;;
21894;SDS011;11112;51.270;7.224;2022-07-10T11:40:07;11.85;;;8.77;;
21894;SDS011;11112;51.270;7.224;2022-07-10T11:45:24;12.48;;;9.32;;
21894;SDS011;11112;51.270;7.224;2022-07-10T11:47:55;12.77;;;10.75;;
21894;SDS011;11112;51.270;7.224;2022-07-10T11:50:24;14.02;;;10.38;;
21894;SDS011;11112;51.270;7.224;2022-07-10T11:52:53;12.88;;;10.93;;
21894;SDS011;11112;51.270;7.224;2022-07-10T11:55:21;11.93;;;9.88;;
21894;SDS011;11112;51.270;7.224;2022-07-10T11:57:50;11.88;;;10.10;;
21894;SDS011;11112;51.270;7.224;2022-07-10T12:00:21;13.05;;;10.52;;
21894;SDS011;11112;51.270;7.224;2022-07-10T12:02:50;13.60;;;11.02;;
21894;SDS011;11112;51.270;7.224;2022-07-10T12:05:35;15.07;;;11.50;;
21894;SDS011;11112;51.270;7.224;2022-07-10T12:08:04;15.02;;;11.55;;
21894;SDS011;11112;51.270;7.224;2022-07-10T12:10:32;11.38;;;10.23;;
21894;SDS011;11112;51.270;7.224;2022-07-10T12:13:06;13.10;;;10.93;;
21894;SDS011;11112;51.270;7.224;2022-07-10T12:15:36;12.50;;;11.15;;
21894;SDS011;11112;51.270;7.224;2022-07-10T12:18:05;11.95;;;10.55;;
21894;SDS011;11112;51.270;7.224;2022-07-10T12:20:36;12.05;;;10.90;;
21894;SDS011;11112;51.270;7.224;2022-07-10T12:23:07;13.35;;;10.85;;
21894;SDS011;11112;51.270;7.224;2022-07-10T12:25:41;11.65;;;9.82;;
21894;SDS011;11112;51.270;7.224;2022-07-10T12:28:08;9.60;;;8.55;;
21894;SDS011;11112;51.270;7.224;2022-07-10T12:30:37;9.27;;;8.27;;
21894;SDS011;11112;51.270;7.224;2022-07-10T12:33:09;7.93;;;7.13;;
21894;SDS011;11112;51.270;7.224;2022-07-10T12:35:50;6.32;;;5.18;;
21894;SDS011;11112;51.270;7.224;2022-07-10T12:38:20;6.03;;;5.38;;
21894;SDS011;11112;51.270;7.224;2022-07-10T12:40:49;4.75;;;4.28;;
21894;SDS011;11112;51.270;7.224;2022-07-10T12:43:26;4.40;;;3.90;;
21894;SDS011;11112;51.270;7.224;2022-07-10T12:46:10;5.15;;;3.70;;
21894;SDS011;11112;51.270;7.224;2022-07-10T12:48:40;5.00;;;3.20;;
21894;SDS011;11112;51.270;7.224;2022-07-10T12:51:20;3.72;;;2.20;;
21894;SDS011;11112;51.270;7.224;2022-07-10T12:53:52;4.20;;;2.30;;
21894;SDS011;11112;51.270;7.224;2022-07-10T12:56:26;3.45;;;1.95;;
21894;SDS011;11112;51.270;7.224;2022-07-10T12:58:58;2.38;;;1.80;;
21894;SDS011;11112;51.270;7.224;2022-07-10T13:01:27;3.65;;;2.10;;
21894;SDS011;11112;51.270;7.224;2022-07-10T13:03:59;4.82;;;3.17;;
21894;SDS011;11112;51.270;7.224;2022-07-10T13:06:29;3.83;;;2.20;;
21894;SDS011;11112;51.270;7.224;2022-07-10T13:08:57;4.10;;;2.00;;
21894;SDS011;11112;51.270;7.224;2022-07-10T13:11:24;4.00;;;2.08;;
21894;SDS011;11112;51.270;7.224;2022-07-10T13:13:52;3.42;;;1.90;;
21894;SDS011;11112;51.270;7.224;2022-07-10T13:16:21;4.20;;;2.00;;
21894;SDS011;11112;51.270;7.224;2022-07-10T13:18:49;4.28;;;2.25;;
21894;SDS011;11112;51.270;7.224;2022-07-10T13:21:16;3.05;;;1.50;;
21894;SDS011;11112;51.270;7.224;2022-07-10T13:23:45;2.83;;;1.73;;
21894;SDS011;11112;51.270;7.224;2022-07-10T13:26:13;4.25;;;2.03;;
21894;SDS011;11112;51.270;7.224;2022-07-10T13:28:40;3.45;;;2.10;;
21894;SDS011;11112;51.270;7.224;2022-07-10T13:31:07;3.42;;;2.05;;
21894;SDS011;11112;51.270;7.224;2022-07-10T13:33:34;4.75;;;2.60;;
21894;SDS011;11112;51.270;7.224;2022-07-10T13:36:02;5.28;;;2.80;;
21894;SDS011;11112;51.270;7.224;2022-07-10T13:38:31;5.88;;;2.70;;
21894;SDS011;11112;51.270;7.224;2022-07-10T13:40:59;4.90;;;2.10;;
21894;SDS011;11112;51.270;7.224;2022-07-10T13:43:26;6.18;;;2.08;;
21894;SDS011;11112;51.270;7.224;2022-07-10T13:45:58;6.05;;;2.17;;
21894;SDS011;11112;51.270;7.224;2022-07-10T13:48:26;4.15;;;2.05;;
21894;SDS011;11112;51.270;7.224;2022-07-10T13:50:54;4.05;;;1.80;;
21894;SDS011;11112;51.270;7.224;2022-07-10T13:53:22;4.13;;;1.88;;
21894;SDS011;11112;51.270;7.224;2022-07-10T13:55:49;3.38;;;2.05;;
21894;SDS011;11112;51.270;7.224;2022-07-10T13:58:18;3.88;;;1.90;;
21894;SDS011;11112;51.270;7.224;2022-07-10T14:00:47;5.10;;;2.60;;
21894;SDS011;11112;51.270;7.224;2022-07-10T14:03:14;4.88;;;1.80;;
21894;SDS011;11112;51.270;7.224;2022-07-10T14:05:44;4.13;;;1.75;;
21894;SDS011;11112;51.270;7.224;2022-07-10T14:08:12;5.53;;;2.28;;
21894;SDS011;11112;51.270;7.224;2022-07-10T14:10:40;5.43;;;2.03;;
21894;SDS011;11112;51.270;7.224;2022-07-10T14:13:07;7.88;;;2.70;;
21894;SDS011;11112;51.270;7.224;2022-07-10T14:15:36;5.53;;;2.38;;
21894;SDS011;11112;51.270;7.224;2022-07-10T14:18:05;5.15;;;2.45;;
21894;SDS011;11112;51.270;7.224;2022-07-10T14:20:32;5.22;;;3.33;;
21894;SDS011;11112;51.270;7.224;2022-07-10T14:23:13;5.70;;;2.85;;
21894;SDS011;11112;51.270;7.224;2022-07-10T14:25:40;4.82;;;2.30;;
21894;SDS011;11112;51.270;7.224;2022-07-10T14:28:11;5.38;;;2.20;;
21894;SDS011;11112;51.270;7.224;2022-07-10T14:30:40;8.15;;;3.72;;
21894;SDS011;11112;51.270;7.224;2022-07-10T14:33:08;4.93;;;2.90;;
21894;SDS011;11112;51.270;7.224;2022-07-10T14:35:35;5.38;;;2.80;;
21894;SDS011;11112;51.270;7.224;2022-07-10T14:38:03;6.82;;;3.50;;
21894;SDS011;11112;51.270;7.224;2022-07-10T14:40:30;8.07;;;4.38;;
21894;SDS011;11112;51.270;7.224;2022-07-10T14:42:57;9.25;;;5.57;;
21894;SDS011;11112;51.270;7.224;2022-07-10T14:45:24;11.35;;;5.60;;
21894;SDS011;11112;51.270;7.224;2022-07-10T14:47:52;7.60;;;5.18;;
21894;SDS011;11112;51.270;7.224;2022-07-10T14:50:23;7.95;;;5.07;;
21894;SDS011;11112;51.270;7.224;2022-07-10T14:52:50;10.25;;;5.55;;
21894;SDS011;11112;51.270;7.224;2022-07-10T14:55:18;9.48;;;5.63;;
21894;SDS011;11112;51.270;7.224;2022-07-10T14:57:45;9.73;;;5.80;;
21894;SDS011;11112;51.270;7.224;2022-07-10T15:00:13;10.02;;;6.25;;
21894;SDS011;11112;51.270;7.224;2022-07-10T15:02:41;9.70;;;5.45;;
21894;SDS011;11112;51.270;7.224;2022-07-10T15:05:10;10.25;;;5.35;;
21894;SDS011;11112;51.270;7.224;2022-07-10T15:07:38;7.88;;;4.15;;
21894;SDS011;11112;51.270;7.224;2022-07-10T15:10:05;7.22;;;4.25;;
21894;SDS011;11112;51.270;7.224;2022-07-10T15:12:33;12.45;;;4.13;;